Time;durP1;ratioP1;P1;durP2;ratioP2;P2;SDS_P1;SDS_P2;PMS_P1;PMS_P2;Temp;Humidity;BMP_temperature;BMP_pressure;BME280_temperature;BME280_humidity;BME280_pressure;Samples;Min_cycle;Max_cycle;Signal;HPM_P1;HPM_P2
2021/10/25 00:01:54;;;;;;;13.48;10.43;;;7.80;99.90;;;;;;5015869;28;20196;-79
2021/10/25 00:04:23;;;;;;;14.10;10.70;;;7.70;99.90;;;;;;5015853;28;20208;-79
2021/10/25 00:06:50;;;;;;;14.70;12.18;;;7.80;99.90;;;;;;5016015;28;20427;-79
2021/10/25 00:09:17;;;;;;;14.38;9.93;;;7.70;99.90;;;;;;5015587;28;20213;-79
2021/10/25 00:11:44;;;;;;;16.30;11.23;;;7.80;99.90;;;;;;5016510;28;20214;-79
2021/10/25 00:14:11;;;;;;;13.00;10.23;;;7.80;99.90;;;;;;5015572;28;20713;-79
2021/10/25 00:16:38;;;;;;;15.20;9.20;;;7.80;99.90;;;;;;5015443;28;20481;-79
2021/10/25 00:19:05;;;;;;;15.63;10.20;;;8.00;99.90;;;;;;5016173;28;20212;-79
2021/10/25 00:21:33;;;;;;;15.50;10.07;;;7.90;99.90;;;;;;5017146;28;20209;-79
2021/10/25 00:24:00;;;;;;;16.13;10.07;;;7.70;99.90;;;;;;5019634;28;20457;-79
2021/10/25 00:26:27;;;;;;;12.63;9.60;;;7.50;99.90;;;;;;5021221;28;20276;-79
2021/10/25 00:28:54;;;;;;;15.25;10.48;;;7.20;99.90;;;;;;5020067;28;20292;-79
2021/10/25 00:31:21;;;;;;;16.58;10.55;;;7.50;99.90;;;;;;5026345;28;20665;-78
2021/10/25 00:33:47;;;;;;;15.75;9.88;;;7.40;99.90;;;;;;5019935;28;20299;-79
2021/10/25 00:36:14;;;;;;;15.38;10.35;;;7.30;99.90;;;;;;5019352;28;20319;-79
2021/10/25 00:38:42;;;;;;;16.93;10.00;;;7.20;99.90;;;;;;5019799;28;20237;-79
2021/10/25 00:41:10;;;;;;;15.05;10.00;;;7.20;99.90;;;;;;5019326;28;20523;-79
2021/10/25 00:43:37;;;;;;;18.35;10.05;;;6.90;99.90;;;;;;5018475;28;20298;-79
2021/10/25 00:46:06;;;;;;;14.10;11.00;;;7.00;99.90;;;;;;5019148;28;20250;-79
2021/10/25 00:48:33;;;;;;;12.35;9.50;;;7.10;99.90;;;;;;5019045;28;20300;-79
2021/10/25 00:51:00;;;;;;;14.27;9.73;;;7.00;99.90;;;;;;5019214;28;20215;-80
2021/10/25 00:53:27;;;;;;;13.38;10.13;;;7.00;99.90;;;;;;5019417;28;20209;-78
2021/10/25 00:55:55;;;;;;;11.27;8.98;;;7.20;99.90;;;;;;5018752;28;20615;-78
2021/10/25 00:58:22;;;;;;;13.75;10.10;;;7.10;99.90;;;;;;5020257;28;20288;-80
2021/10/25 01:00:49;;;;;;;16.15;10.98;;;7.30;99.90;;;;;;5019521;28;20210;-81
2021/10/25 01:03:16;;;;;;;13.02;10.25;;;7.20;99.90;;;;;;5020324;28;20377;-79
2021/10/25 01:05:43;;;;;;;13.82;9.77;;;7.10;99.90;;;;;;5022201;28;20224;-78
2021/10/25 01:08:10;;;;;;;14.27;10.23;;;7.10;99.90;;;;;;5022400;28;20256;-79
2021/10/25 01:10:38;;;;;;;15.18;9.63;;;7.30;99.90;;;;;;5029971;28;20281;-77
2021/10/25 01:13:06;;;;;;;17.20;9.82;;;7.30;99.90;;;;;;5025831;28;20215;-79
2021/10/25 01:15:33;;;;;;;14.70;10.45;;;7.30;99.90;;;;;;5021464;28;20599;-79
2021/10/25 01:18:01;;;;;;;11.60;9.23;;;7.50;99.90;;;;;;5018850;28;20226;-79
2021/10/25 01:20:32;;;;;;;14.10;9.57;;;7.70;99.90;;;;;;5018541;28;20448;-79
2021/10/25 01:23:00;;;;;;;12.68;9.50;;;7.50;99.90;;;;;;5018276;28;20440;-78
2021/10/25 01:25:28;;;;;;;13.80;9.97;;;7.70;99.90;;;;;;5025641;28;20288;-79
2021/10/25 01:27:55;;;;;;;10.93;9.23;;;7.70;99.90;;;;;;5019116;28;21016;-78
2021/10/25 01:30:22;;;;;;;12.85;9.20;;;7.70;99.90;;;;;;5023636;28;20449;-79
2021/10/25 01:32:49;;;;;;;11.88;9.45;;;7.70;99.90;;;;;;5018030;28;20223;-79
2021/10/25 01:35:17;;;;;;;13.85;9.10;;;7.90;99.90;;;;;;5018710;28;20243;-79
2021/10/25 01:37:45;;;;;;;13.75;9.38;;;7.70;99.90;;;;;;5025435;28;20224;-79
2021/10/25 01:40:13;;;;;;;15.10;9.63;;;7.60;99.90;;;;;;5030301;28;20225;-79
2021/10/25 01:42:40;;;;;;;13.10;8.47;;;7.70;99.90;;;;;;5027838;28;20476;-79
2021/10/25 01:45:09;;;;;;;12.90;9.27;;;7.60;99.90;;;;;;5020219;28;20453;-78
2021/10/25 01:47:36;;;;;;;13.40;9.60;;;7.70;99.90;;;;;;5021343;28;20452;-79
2021/10/25 01:50:05;;;;;;;14.17;10.10;;;7.50;99.90;;;;;;5028209;28;20484;-79
2021/10/25 01:52:32;;;;;;;14.48;10.00;;;7.50;99.90;;;;;;5028843;28;20491;-79
2021/10/25 01:55:00;;;;;;;13.20;9.90;;;7.40;99.90;;;;;;5018408;28;20233;-80
2021/10/25 01:57:27;;;;;;;13.10;8.95;;;7.30;99.90;;;;;;5018159;28;20572;-79
2021/10/25 01:59:54;;;;;;;13.40;8.82;;;7.30;99.90;;;;;;5017984;28;20581;-79
2021/10/25 02:02:21;;;;;;;12.63;9.48;;;7.20;99.90;;;;;;5018222;28;20296;-79
2021/10/25 02:04:48;;;;;;;13.65;9.80;;;7.10;99.90;;;;;;5018728;28;20668;-79
2021/10/25 02:07:16;;;;;;;17.27;10.70;;;7.10;99.90;;;;;;5017433;28;20296;-79
2021/10/25 02:09:43;;;;;;;12.27;9.10;;;7.00;99.90;;;;;;5017972;28;20266;-79
2021/10/25 02:12:12;;;;;;;12.55;9.38;;;7.10;99.90;;;;;;5018000;28;20235;-79
2021/10/25 02:14:39;;;;;;;10.93;8.70;;;6.90;99.90;;;;;;5018020;28;20220;-79
2021/10/25 02:17:06;;;;;;;13.45;9.85;;;6.90;99.90;;;;;;5017699;28;20216;-79
2021/10/25 02:19:33;;;;;;;12.55;9.98;;;6.90;99.90;;;;;;5017787;28;20300;-78
2021/10/25 02:22:00;;;;;;;14.52;10.35;;;7.00;99.90;;;;;;5018461;28;20616;-79
2021/10/25 02:24:27;;;;;;;13.30;8.70;;;6.70;99.90;;;;;;5017302;28;20294;-79
2021/10/25 02:26:54;;;;;;;14.60;9.07;;;6.70;99.90;;;;;;5022110;28;20239;-79
2021/10/25 02:29:22;;;;;;;14.13;9.88;;;6.80;99.90;;;;;;5020174;28;20208;-80
2021/10/25 02:31:49;;;;;;;13.23;8.90;;;6.90;99.90;;;;;;5017172;28;20211;-79
2021/10/25 02:34:16;;;;;;;14.70;9.20;;;6.90;99.90;;;;;;5027106;28;20310;-78
2021/10/25 02:36:43;;;;;;;14.18;8.70;;;6.90;99.90;;;;;;5026568;28;20236;-78
2021/10/25 02:39:10;;;;;;;12.05;9.63;;;6.80;99.90;;;;;;5017843;28;20582;-79
2021/10/25 02:41:37;;;;;;;10.25;8.60;;;7.00;99.90;;;;;;5026912;28;20212;-78
2021/10/25 02:44:05;;;;;;;15.60;9.30;;;7.00;99.90;;;;;;5021338;28;20263;-79
2021/10/25 02:46:33;;;;;;;11.80;8.23;;;7.20;99.90;;;;;;5017006;28;20320;-79
2021/10/25 02:49:00;;;;;;;13.13;9.45;;;7.30;99.90;;;;;;5016238;28;20208;-79
2021/10/25 02:51:27;;;;;;;13.17;9.87;;;7.00;99.90;;;;;;5016725;28;20229;-79
2021/10/25 02:53:54;;;;;;;11.90;8.43;;;7.00;99.90;;;;;;5017149;28;20433;-79
2021/10/25 02:56:21;;;;;;;12.70;8.35;;;7.10;99.90;;;;;;5023965;28;20304;-79
2021/10/25 02:58:48;;;;;;;11.43;8.50;;;7.20;99.90;;;;;;5021546;28;20236;-79
2021/10/25 03:01:15;;;;;;;11.23;8.43;;;7.30;99.90;;;;;;5021624;28;20459;-79
2021/10/25 03:03:44;;;;;;;11.80;8.05;;;7.10;99.90;;;;;;5019116;28;20213;-79
2021/10/25 03:06:10;;;;;;;11.23;7.90;;;7.20;99.90;;;;;;5017167;28;20283;-79
2021/10/25 03:08:38;;;;;;;11.50;8.30;;;7.30;99.90;;;;;;5017122;28;20225;-79
2021/10/25 03:11:05;;;;;;;11.45;8.35;;;7.40;99.90;;;;;;5017161;28;20205;-79
2021/10/25 03:13:32;;;;;;;12.15;8.25;;;7.00;99.90;;;;;;5016915;28;20272;-79
2021/10/25 03:15:59;;;;;;;13.07;7.95;;;6.80;99.90;;;;;;5017152;28;20233;-79
2021/10/25 03:18:26;;;;;;;13.20;8.48;;;7.10;99.90;;;;;;5017753;28;20224;-78
2021/10/25 03:20:54;;;;;;;10.13;7.38;;;6.90;99.90;;;;;;5021454;28;20296;-79
2021/10/25 03:23:23;;;;;;;12.20;7.75;;;7.00;99.90;;;;;;5017124;28;20293;-79
2021/10/25 03:25:50;;;;;;;12.23;8.35;;;6.80;99.90;;;;;;5023164;28;20663;-79
2021/10/25 03:28:17;;;;;;;12.25;7.68;;;6.80;99.90;;;;;;5017571;28;20239;-79
2021/10/25 03:30:44;;;;;;;12.63;8.20;;;6.90;99.90;;;;;;5016569;28;20218;-79
2021/10/25 03:33:11;;;;;;;10.77;8.07;;;6.80;99.90;;;;;;5017296;28;20295;-79
2021/10/25 03:35:38;;;;;;;13.40;8.40;;;6.90;99.90;;;;;;5016780;28;20225;-79
2021/10/25 03:38:09;;;;;;;10.90;7.47;;;6.90;99.90;;;;;;5016180;28;20483;-79
2021/10/25 03:40:36;;;;;;;13.00;8.00;;;6.90;99.90;;;;;;5016490;28;20255;-79
2021/10/25 03:43:03;;;;;;;11.20;8.45;;;7.00;99.90;;;;;;5016439;28;20298;-79
2021/10/25 03:45:34;;;;;;;11.73;8.32;;;7.00;99.90;;;;;;5016342;28;20651;-79
2021/10/25 03:48:06;;;;;;;11.38;7.93;;;6.80;99.90;;;;;;5016962;28;20558;-80
2021/10/25 03:50:35;;;;;;;10.57;7.00;;;6.80;99.90;;;;;;5016566;28;20191;-79
2021/10/25 03:53:06;;;;;;;11.20;7.78;;;7.00;99.90;;;;;;5016251;28;20216;-79
2021/10/25 03:55:36;;;;;;;10.52;6.90;;;6.90;99.90;;;;;;5016866;28;20246;-79
2021/10/25 03:58:43;;;;;;;10.80;7.32;;;7.00;99.90;;;;;;5017586;28;20229;-79
2021/10/25 04:01:25;;;;;;;11.25;6.93;;;6.90;99.90;;;;;;5018398;28;20625;-79
2021/10/25 04:28:49;;;;;;;9.63;6.45;;;6.70;99.90;;;;;;5007821;28;20204;-81
2021/10/25 04:31:16;;;;;;;10.43;7.03;;;6.70;99.90;;;;;;5021786;28;20228;-81
2021/10/25 04:33:43;;;;;;;12.77;8.77;;;6.40;99.90;;;;;;5022381;28;20248;-81
2021/10/25 04:36:10;;;;;;;12.70;8.20;;;6.50;99.90;;;;;;5021547;28;20232;-81
2021/10/25 04:38:37;;;;;;;12.55;7.40;;;6.40;99.90;;;;;;5020783;28;20283;-81
2021/10/25 04:41:04;;;;;;;11.02;7.70;;;6.40;99.90;;;;;;5020466;28;20211;-80
2021/10/25 04:43:31;;;;;;;10.90;7.70;;;6.40;99.90;;;;;;5020113;28;20215;-80
2021/10/25 04:45:59;;;;;;;11.90;7.95;;;6.30;99.90;;;;;;5020661;28;20252;-80
2021/10/25 04:48:26;;;;;;;12.93;8.20;;;6.40;99.90;;;;;;5019587;28;20213;-80
2021/10/25 04:50:52;;;;;;;12.43;8.25;;;6.30;99.90;;;;;;5020554;28;20303;-80
2021/10/25 04:53:19;;;;;;;14.43;8.38;;;6.60;99.90;;;;;;5026538;28;20209;-80
2021/10/25 04:55:46;;;;;;;10.55;7.85;;;6.50;99.90;;;;;;5028103;28;20273;-79
2021/10/25 04:58:13;;;;;;;14.98;8.55;;;6.40;99.90;;;;;;5020263;28;20228;-79
2021/10/25 05:00:41;;;;;;;13.57;8.10;;;6.50;99.90;;;;;;5023780;28;20239;-79
2021/10/25 05:03:09;;;;;;;11.32;8.32;;;6.60;99.90;;;;;;5025170;28;20207;-80
2021/10/25 05:05:36;;;;;;;13.40;7.68;;;6.40;99.90;;;;;;5022829;28;20294;-80
2021/10/25 05:08:04;;;;;;;14.52;8.63;;;6.60;99.90;;;;;;5019605;28;20219;-80
2021/10/25 05:10:31;;;;;;;11.68;8.07;;;6.60;99.90;;;;;;5024824;28;20211;-81
2021/10/25 05:13:00;;;;;;;11.52;8.45;;;6.90;99.90;;;;;;5025674;28;20573;-82
2021/10/25 05:15:27;;;;;;;12.02;8.45;;;6.80;99.90;;;;;;5025723;28;20248;-79
2021/10/25 05:17:53;;;;;;;12.88;8.75;;;6.90;99.90;;;;;;5030327;28;20205;-82
2021/10/25 05:20:22;;;;;;;11.38;8.18;;;6.60;99.90;;;;;;5020159;28;20229;-81
2021/10/25 05:22:49;;;;;;;14.63;9.27;;;6.80;99.90;;;;;;5019262;28;20204;-80
2021/10/25 05:25:15;;;;;;;17.55;8.27;;;6.80;99.90;;;;;;5030200;28;20301;-79
2021/10/25 05:27:42;;;;;;;12.63;8.90;;;6.80;99.90;;;;;;5036191;28;20197;-78
2021/10/25 05:30:10;;;;;;;12.63;7.80;;;6.80;99.90;;;;;;5024439;28;20297;-81
2021/10/25 05:32:37;;;;;;;11.90;8.63;;;6.80;99.90;;;;;;5019799;28;20240;-81
2021/10/25 05:35:04;;;;;;;12.45;9.07;;;6.80;99.90;;;;;;5019426;28;20456;-81
2021/10/25 05:37:33;;;;;;;13.23;9.02;;;6.70;99.90;;;;;;5019179;28;20217;-81
2021/10/25 05:40:00;;;;;;;14.10;9.38;;;6.80;99.90;;;;;;5019825;28;20246;-81
2021/10/25 05:42:27;;;;;;;13.52;9.45;;;6.90;99.90;;;;;;5019174;28;20212;-80
2021/10/25 05:44:54;;;;;;;14.68;9.23;;;6.90;99.90;;;;;;5020048;28;20210;-80
2021/10/25 05:47:22;;;;;;;11.60;9.20;;;6.80;99.90;;;;;;5021198;28;20210;-80
2021/10/25 05:49:48;;;;;;;10.73;8.45;;;6.80;99.90;;;;;;5022501;28;20662;-81
2021/10/25 05:52:15;;;;;;;12.88;8.90;;;6.50;99.90;;;;;;5022152;28;20209;-80
2021/10/25 05:54:43;;;;;;;13.23;9.45;;;6.90;99.90;;;;;;5018992;28;20211;-81
2021/10/25 05:57:12;;;;;;;13.90;8.75;;;6.50;99.90;;;;;;5019549;28;20229;-81
2021/10/25 05:59:39;;;;;;;14.27;8.97;;;6.60;99.90;;;;;;5023381;28;20249;-81
2021/10/25 06:02:11;;;;;;;15.25;10.20;;;6.60;99.90;;;;;;5022135;28;20924;-82
2021/10/25 06:04:38;;;;;;;14.82;10.18;;;6.60;99.90;;;;;;5024085;28;20289;-81
2021/10/25 06:07:05;;;;;;;14.05;10.05;;;6.70;99.90;;;;;;5023595;28;20247;-84
2021/10/25 06:09:34;;;;;;;12.15;9.80;;;6.40;99.90;;;;;;5021715;28;20350;-83
2021/10/25 06:12:07;;;;;;;13.65;10.40;;;6.50;99.90;;;;;;5021519;28;20209;-82
2021/10/25 06:14:37;;;;;;;12.40;9.88;;;6.50;99.90;;;;;;5021737;28;20664;-80
2021/10/25 06:17:15;;;;;;;16.65;10.35;;;6.60;99.90;;;;;;5020690;28;20233;-81
2021/10/25 06:19:42;;;;;;;12.07;9.68;;;6.40;99.90;;;;;;5019428;28;20255;-81
2021/10/25 06:22:09;;;;;;;16.73;10.73;;;6.60;99.90;;;;;;5019729;28;20289;-83
2021/10/25 06:24:36;;;;;;;15.15;10.02;;;6.50;99.90;;;;;;5124151;23;20228;-79
2021/10/25 06:27:04;;;;;;;14.65;10.25;;;6.40;99.90;;;;;;5032436;28;20228;-79
2021/10/25 06:29:31;;;;;;;13.40;9.88;;;6.40;99.90;;;;;;5029016;28;20204;-82
2021/10/25 06:31:58;;;;;;;13.40;9.38;;;6.50;99.90;;;;;;5022674;28;20210;-78
2021/10/25 06:34:28;;;;;;;14.57;9.00;;;6.60;99.90;;;;;;5024734;28;20261;-79
2021/10/25 06:36:55;;;;;;;14.80;9.23;;;6.60;99.90;;;;;;5032165;28;20333;-79
2021/10/25 06:39:24;;;;;;;11.70;9.07;;;6.50;99.90;;;;;;5031332;28;20259;-79
2021/10/25 06:41:51;;;;;;;14.15;9.65;;;6.60;99.90;;;;;;5030693;28;20620;-79
2021/10/25 06:44:21;;;;;;;12.93;8.40;;;6.50;99.90;;;;;;5028467;28;20209;-78
2021/10/25 06:46:48;;;;;;;14.93;9.75;;;6.80;99.90;;;;;;5020767;28;20326;-81
2021/10/25 06:49:15;;;;;;;15.10;10.65;;;6.80;99.90;;;;;;5019382;28;20208;-80
2021/10/25 06:51:43;;;;;;;15.25;9.40;;;7.00;99.90;;;;;;5019213;28;20686;-79
2021/10/25 06:54:10;;;;;;;20.45;9.63;;;6.90;99.90;;;;;;5018932;28;20216;-80
2021/10/25 06:56:38;;;;;;;22.27;10.17;;;6.80;99.90;;;;;;5019153;28;20303;-79
2021/10/25 06:59:04;;;;;;;18.75;9.30;;;6.80;99.90;;;;;;5019616;28;20578;-78
2021/10/25 07:01:32;;;;;;;16.55;9.30;;;7.10;99.90;;;;;;5018703;28;20278;-80
2021/10/25 07:03:59;;;;;;;22.02;10.43;;;6.90;99.90;;;;;;5022772;28;20272;-78
2021/10/25 07:06:29;;;;;;;20.83;10.63;;;7.00;99.90;;;;;;5018939;28;20234;-79
2021/10/25 07:08:56;;;;;;;16.75;9.23;;;7.00;99.90;;;;;;5019588;28;20495;-79
2021/10/25 07:11:23;;;;;;;18.50;10.32;;;7.20;99.90;;;;;;5027338;28;20569;-78
2021/10/25 07:13:51;;;;;;;21.17;10.15;;;7.10;99.90;;;;;;5023180;28;20217;-79
2021/10/25 07:16:22;;;;;;;19.80;9.20;;;7.10;99.90;;;;;;5021024;28;20237;-78
2021/10/25 07:19:03;;;;;;;14.50;10.03;;;7.10;99.90;;;;;;5017797;28;20460;-79
2021/10/25 07:21:50;;;;;;;14.95;9.70;;;7.10;99.90;;;;;;5029152;28;20496;-79
2021/10/25 08:05:48;;;;;;;18.13;9.80;;;8.90;99.90;;;;;;4979920;28;20455;-81
2021/10/25 08:08:31;;;;;;;17.50;9.00;;;9.00;99.90;;;;;;4980742;28;20562;-79
2021/10/25 08:11:02;;;;;;;15.33;9.57;;;9.00;99.90;;;;;;5013563;28;20504;-81
2021/10/25 08:13:33;;;;;;;12.33;8.40;;;9.30;99.90;;;;;;5022525;28;20442;-80
2021/10/25 08:16:09;;;;;;;15.70;8.87;;;9.50;99.90;;;;;;5018083;28;20477;-80
2021/10/25 08:18:42;;;;;;;12.30;8.60;;;9.60;99.90;;;;;;5017446;28;20880;-80
2021/10/25 08:21:10;;;;;;;16.13;9.77;;;9.90;99.90;;;;;;5017742;28;20811;-79
2021/10/25 08:23:39;;;;;;;16.63;9.30;;;10.00;99.90;;;;;;5017048;28;20932;-79
2021/10/25 08:26:07;;;;;;;10.70;8.30;;;10.00;99.90;;;;;;5016558;28;20448;-81
2021/10/25 08:28:34;;;;;;;14.00;9.00;;;10.10;99.90;;;;;;5017009;28;20528;-80
2021/10/25 08:31:01;;;;;;;10.57;8.73;;;10.10;99.90;;;;;;5016545;28;20515;-79
2021/10/25 08:33:46;;;;;;;16.13;10.23;;;10.20;99.90;;;;;;5016549;28;20476;-80
2021/10/25 08:36:16;;;;;;;14.60;8.70;;;10.40;99.90;;;;;;5016363;28;20902;-79
2021/10/25 08:41:29;;;;;;;14.10;9.53;;;10.70;99.90;;;;;;5016566;28;20381;-79
2021/10/25 08:43:57;;;;;;;11.20;9.00;;;10.80;99.90;;;;;;5018802;28;20425;-79
2021/10/25 08:46:26;;;;;;;11.63;8.20;;;10.90;99.90;;;;;;5017659;28;20573;-80
2021/10/25 08:48:53;;;;;;;11.10;8.20;;;11.00;99.90;;;;;;5021639;28;20420;-83
2021/10/25 08:51:21;;;;;;;13.60;8.73;;;11.20;99.90;;;;;;5022960;28;20724;-83
2021/10/25 08:53:49;;;;;;;12.23;9.13;;;11.30;99.90;;;;;;5022998;28;20523;-82
2021/10/25 08:56:18;;;;;;;16.80;8.80;;;11.40;99.90;;;;;;5025266;28;20508;-82
2021/10/25 08:58:45;;;;;;;11.87;8.00;;;11.40;99.90;;;;;;5034837;28;20425;-82
2021/10/25 09:01:22;;;;;;;13.37;9.27;;;11.50;99.90;;;;;;5025502;28;20456;-82
2021/10/25 09:04:02;;;;;;;10.50;6.07;;;11.50;99.90;;;;;;5022776;28;20423;-82
2021/10/25 09:06:29;;;;;;;12.47;6.60;;;11.70;99.90;;;;;;5026539;28;20497;-81
2021/10/25 09:09:00;;;;;;;14.03;6.40;;;11.60;99.90;;;;;;5022051;28;20515;-82
2021/10/25 09:11:28;;;;;;;10.63;6.57;;;11.40;99.90;;;;;;5021312;28;20524;-81
2021/10/25 09:13:54;;;;;;;11.97;7.40;;;11.50;99.90;;;;;;5020849;28;20458;-81
2021/10/25 09:16:22;;;;;;;12.27;7.10;;;11.50;99.90;;;;;;5022023;28;20452;-83
2021/10/25 09:18:49;;;;;;;12.23;6.03;;;11.60;99.90;;;;;;5022776;28;21033;-80
2021/10/25 09:21:16;;;;;;;8.03;6.27;;;11.70;99.90;;;;;;5021854;28;20460;-82
2021/10/25 09:23:44;;;;;;;10.67;6.67;;;11.70;99.90;;;;;;5020865;28;20553;-81
2021/10/25 09:26:16;;;;;;;13.53;7.47;;;11.70;99.90;;;;;;5020687;28;20531;-81
2021/10/25 09:28:48;;;;;;;11.10;6.27;;;11.70;99.90;;;;;;5020851;28;20432;-81
2021/10/25 09:31:26;;;;;;;14.03;9.03;;;11.80;99.90;;;;;;5030103;28;20420;-81
2021/10/25 09:33:55;;;;;;;8.97;5.80;;;11.80;99.90;;;;;;5029051;28;20447;-79
2021/10/25 09:36:25;;;;;;;12.77;7.20;;;11.90;99.90;;;;;;5023926;28;20452;-79
2021/10/25 09:39:01;;;;;;;8.77;5.70;;;11.90;99.90;;;;;;5021413;28;20491;-83
2021/10/25 09:41:53;;;;;;;9.00;6.70;;;11.90;99.90;;;;;;5021857;28;20449;-82
2021/10/25 09:49:54;;;;;;;10.60;6.83;;;12.00;99.90;;;;;;5023151;28;20384;-80
2021/10/25 09:52:29;;;;;;;14.30;7.13;;;12.10;99.90;;;;;;5027265;28;20512;-81
2021/10/25 09:54:58;;;;;;;10.10;7.10;;;12.30;99.90;;;;;;5026567;28;20456;-81
2021/10/25 09:57:38;;;;;;;10.30;6.50;;;12.40;99.90;;;;;;5020236;28;20433;-82
2021/10/25 10:00:07;;;;;;;9.87;5.73;;;12.60;99.90;;;;;;5020286;28;20448;-82
2021/10/25 10:02:34;;;;;;;8.50;6.50;;;12.80;99.90;;;;;;5021321;28;20504;-83
2021/10/25 10:05:04;;;;;;;9.90;7.07;;;12.70;99.90;;;;;;5021382;28;20421;-83
2021/10/25 10:07:32;;;;;;;13.27;5.93;;;12.80;99.90;;;;;;5023442;28;20941;-82
2021/10/25 10:09:59;;;;;;;8.93;6.10;;;12.80;99.90;;;;;;5029498;28;20425;-81
2021/10/25 10:12:28;;;;;;;11.50;6.30;;;12.90;99.90;;;;;;5028157;28;20490;-83
2021/10/25 10:14:56;;;;;;;8.30;6.20;;;13.00;99.90;;;;;;5026530;28;20425;-83
2021/10/25 10:17:28;;;;;;;9.20;5.77;;;13.20;99.90;;;;;;5025648;28;20509;-83
2021/10/25 10:19:58;;;;;;;8.10;5.70;;;13.30;99.90;;;;;;5023984;28;20500;-83
2021/10/25 10:22:26;;;;;;;8.43;6.40;;;13.50;99.90;;;;;;5024108;28;20470;-83
2021/10/25 10:24:53;;;;;;;8.23;5.40;;;13.60;99.90;;;;;;5020966;28;20524;-83
2021/10/25 10:27:23;;;;;;;10.20;5.50;;;13.60;99.90;;;;;;5021750;28;20425;-83
2021/10/25 10:29:53;;;;;;;7.43;5.50;;;13.70;99.90;;;;;;5022330;28;20439;-84
2021/10/25 10:32:21;;;;;;;9.50;6.00;;;13.80;99.90;;;;;;5019987;28;20413;-80
2021/10/25 10:34:51;;;;;;;12.03;6.70;;;14.00;99.90;;;;;;5034026;23;20461;-79
2021/10/25 10:37:23;;;;;;;7.67;5.63;;;14.10;99.90;;;;;;5028051;28;20419;-81
2021/10/25 10:40:02;;;;;;;6.53;4.20;;;14.10;99.90;;;;;;5027074;28;20512;-81
2021/10/25 10:42:31;;;;;;;9.07;5.50;;;14.00;99.90;;;;;;5024041;28;20652;-81
2021/10/25 10:45:03;;;;;;;11.53;6.37;;;14.10;99.90;;;;;;5023290;28;20559;-82
2021/10/25 10:47:38;;;;;;;7.57;5.20;;;14.20;99.90;;;;;;5025066;28;20521;-81
2021/10/25 10:50:06;;;;;;;7.53;5.00;;;14.30;99.90;;;;;;5023838;28;20413;-81
2021/10/25 10:52:36;;;;;;;9.40;6.07;;;14.30;99.90;;;;;;5025014;28;20457;-81
2021/10/25 10:55:09;;;;;;;8.50;5.87;;;14.30;99.90;;;;;;5024929;28;20816;-81
2021/10/25 11:00:39;;;;;;;8.87;4.90;;;14.30;99.90;;;;;;5028732;28;20524;-81
2021/10/25 11:03:17;;;;;;;7.57;5.00;;;14.40;99.90;;;;;;5022405;28;20413;-80
2021/10/25 11:05:46;;;;;;;9.83;5.73;;;14.40;99.90;;;;;;5022532;28;20491;-81
2021/10/25 11:08:16;;;;;;;8.77;5.47;;;14.50;99.90;;;;;;5023380;28;20494;-81
2021/10/25 11:10:47;;;;;;;8.70;5.90;;;14.50;99.90;;;;;;5022501;28;20440;-81
2021/10/25 11:13:17;;;;;;;8.50;5.33;;;14.50;99.90;;;;;;5027738;28;20550;-81
2021/10/25 11:16:00;;;;;;;10.97;6.20;;;14.50;99.90;;;;;;5022874;28;20471;-80
2021/10/25 11:18:30;;;;;;;7.07;5.50;;;14.60;99.90;;;;;;5019192;28;20409;-79
2021/10/25 11:21:10;;;;;;;8.77;5.40;;;14.60;99.90;;;;;;5018307;28;20471;-80
2021/10/25 11:23:40;;;;;;;11.80;5.80;;;14.70;99.90;;;;;;5027364;28;20465;-81
2021/10/25 11:26:16;;;;;;;7.27;4.63;;;14.70;99.90;;;;;;5024076;28;20488;-82
2021/10/25 11:28:54;;;;;;;8.50;5.97;;;14.70;99.90;;;;;;5021563;28;20897;-81
2021/10/25 11:31:22;;;;;;;7.17;5.20;;;14.80;99.90;;;;;;5019065;28;20434;-80
2021/10/25 11:33:50;;;;;;;10.63;5.03;;;14.90;99.90;;;;;;5018151;28;21035;-80
2021/10/25 11:36:19;;;;;;;12.40;5.60;;;14.90;99.90;;;;;;5019357;28;20833;-80
2021/10/25 11:38:46;;;;;;;7.80;5.27;;;15.00;99.90;;;;;;5021898;28;20433;-81
2021/10/25 11:41:13;;;;;;;8.27;5.97;;;15.00;99.90;;;;;;5028043;28;20905;-79
2021/10/25 11:43:40;;;;;;;9.27;6.37;;;15.00;99.90;;;;;;5025954;28;20429;-79
2021/10/25 11:46:19;;;;;;;8.23;5.60;;;15.10;99.90;;;;;;5028762;28;20542;-81
2021/10/25 11:48:55;;;;;;;8.90;5.50;;;15.10;99.90;;;;;;5023836;28;20443;-81
2021/10/25 11:51:22;;;;;;;7.60;5.27;;;15.10;99.90;;;;;;5022846;28;20463;-84
2021/10/25 11:53:54;;;;;;;8.37;5.07;;;15.20;99.90;;;;;;5028385;28;20451;-81
2021/10/25 11:56:21;;;;;;;9.00;6.17;;;15.30;99.90;;;;;;5026640;28;20471;-78
2021/10/25 11:58:49;;;;;;;10.70;4.90;;;15.30;99.90;;;;;;5022957;28;20447;-79
2021/10/25 12:01:15;;;;;;;7.53;5.17;;;15.40;99.90;;;;;;5017270;28;20486;-79
2021/10/25 12:03:42;;;;;;;10.30;5.80;;;15.40;99.90;;;;;;5021726;28;20512;-79
2021/10/25 12:06:19;;;;;;;10.50;5.73;;;15.50;99.90;;;;;;5022793;28;20955;-79
2021/10/25 12:09:00;;;;;;;9.20;4.33;;;15.50;99.90;;;;;;5018273;28;20434;-79
2021/10/25 12:14:14;;;;;;;7.13;4.63;;;15.50;99.90;;;;;;5009050;28;20454;-79
2021/10/25 12:16:44;;;;;;;7.53;5.20;;;15.50;99.90;;;;;;5016082;28;20459;-80
2021/10/25 12:19:11;;;;;;;8.70;5.07;;;15.50;99.90;;;;;;5019404;28;20459;-79
2021/10/25 12:21:39;;;;;;;10.17;5.77;;;15.60;99.90;;;;;;5021882;28;20553;-78
2021/10/25 12:24:10;;;;;;;9.27;5.77;;;15.80;99.90;;;;;;5021717;28;20528;-80
2021/10/25 12:26:38;;;;;;;8.97;5.70;;;15.70;99.90;;;;;;5021447;28;20488;-81
2021/10/25 12:29:17;;;;;;;8.57;5.10;;;15.70;99.90;;;;;;5023088;28;20463;-82
2021/10/25 12:31:45;;;;;;;8.37;5.67;;;15.80;99.90;;;;;;5022878;28;20516;-81
2021/10/25 12:34:12;;;;;;;7.80;4.57;;;15.80;99.90;;;;;;5022247;28;20474;-81
2021/10/25 12:36:45;;;;;;;7.80;4.80;;;15.90;99.90;;;;;;5021553;28;20464;-81
2021/10/25 12:39:13;;;;;;;7.13;4.53;;;16.00;99.60;;;;;;5020723;28;20537;-80
2021/10/25 12:41:51;;;;;;;9.00;5.80;;;16.10;99.10;;;;;;5022650;28;20471;-80
2021/10/25 12:44:33;;;;;;;9.17;4.50;;;16.20;99.50;;;;;;5022403;28;20467;-84
2021/10/25 12:47:08;;;;;;;7.80;4.53;;;16.10;98.80;;;;;;5020011;28;20417;-78
2021/10/25 12:49:35;;;;;;;10.13;6.90;;;16.20;98.70;;;;;;5018712;28;20504;-78
2021/10/25 12:52:13;;;;;;;11.93;5.90;;;16.20;99.40;;;;;;5020771;28;20461;-78
2021/10/25 12:54:40;;;;;;;10.60;6.70;;;16.20;99.50;;;;;;5023816;28;20441;-77
2021/10/25 12:57:16;;;;;;;13.17;7.00;;;16.10;99.70;;;;;;5019204;28;20995;-78
2021/10/25 12:59:43;;;;;;;9.67;6.70;;;16.20;99.80;;;;;;5018875;28;20453;-79
2021/10/25 13:02:10;;;;;;;11.33;6.67;;;16.30;99.50;;;;;;5020788;28;20483;-78
2021/10/25 13:04:38;;;;;;;9.27;5.63;;;16.40;99.60;;;;;;5020928;28;20442;-78
2021/10/25 13:07:19;;;;;;;9.80;6.00;;;16.30;99.50;;;;;;5017970;28;20485;-78
2021/10/25 13:09:50;;;;;;;8.03;5.80;;;16.30;99.60;;;;;;5017899;28;20791;-78
2021/10/25 13:12:17;;;;;;;11.13;6.07;;;16.30;99.80;;;;;;5021797;28;20422;-80
2021/10/25 13:14:44;;;;;;;8.93;5.50;;;16.30;99.80;;;;;;5023196;28;20562;-82
2021/10/25 13:17:11;;;;;;;9.73;5.87;;;16.30;99.50;;;;;;5023411;28;20534;-80
2021/10/25 13:19:38;;;;;;;12.17;6.50;;;16.40;99.40;;;;;;5025190;28;20433;-80
2021/10/25 13:22:06;;;;;;;9.43;5.43;;;16.40;99.70;;;;;;5026112;28;20486;-80
2021/10/25 13:24:34;;;;;;;9.80;6.03;;;16.50;99.20;;;;;;5032437;28;20462;-82
2021/10/25 13:27:01;;;;;;;14.53;7.47;;;16.60;98.60;;;;;;5025501;28;20521;-82
2021/10/25 13:29:28;;;;;;;7.73;5.00;;;16.60;98.50;;;;;;5024024;28;20534;-82
2021/10/25 13:31:55;;;;;;;9.37;6.50;;;16.60;98.00;;;;;;5022993;28;20452;-82
2021/10/25 13:34:22;;;;;;;9.20;5.13;;;16.60;97.50;;;;;;5022305;28;20512;-82
2021/10/25 13:36:49;;;;;;;8.57;5.70;;;16.70;96.40;;;;;;5023793;28;20456;-82
2021/10/25 13:39:18;;;;;;;9.80;5.20;;;16.80;95.10;;;;;;5025542;28;20453;-84
2021/10/25 13:41:46;;;;;;;7.60;3.17;;;16.90;94.50;;;;;;5023705;28;20484;-85
2021/10/25 13:44:13;;;;;;;7.57;3.00;;;16.80;92.40;;;;;;5024737;28;20544;-83
2021/10/25 13:46:41;;;;;;;5.40;2.77;;;16.90;91.50;;;;;;5024808;28;20493;-83
2021/10/25 13:49:08;;;;;;;5.73;2.70;;;17.00;91.30;;;;;;5025718;28;20522;-82
2021/10/25 13:51:35;;;;;;;4.07;2.60;;;16.90;91.10;;;;;;5026702;28;20503;-82
2021/10/25 13:54:02;;;;;;;7.57;3.70;;;17.00;91.60;;;;;;5032884;28;20459;-82
2021/10/25 13:56:29;;;;;;;4.73;3.23;;;17.00;91.80;;;;;;5035505;28;20836;-80
2021/10/25 13:58:58;;;;;;;5.30;2.73;;;17.00;91.00;;;;;;5026767;28;20419;-81
2021/10/25 14:01:25;;;;;;;6.50;2.83;;;17.00;90.80;;;;;;5021125;28;20480;-82
2021/10/25 14:03:52;;;;;;;4.83;3.10;;;17.10;90.70;;;;;;5022439;28;20437;-82
2021/10/25 14:06:21;;;;;;;5.40;2.77;;;17.30;90.50;;;;;;5025498;28;20506;-84
2021/10/25 14:08:49;;;;;;;7.07;3.20;;;17.20;90.70;;;;;;5024451;28;20538;-82
2021/10/25 14:11:17;;;;;;;5.30;2.80;;;17.10;90.50;;;;;;5023430;28;20540;-82
2021/10/25 14:13:51;;;;;;;6.93;3.80;;;17.10;90.00;;;;;;5023765;28;20528;-82